Nearby METAR Reports

 

LIBG - Grottaglie(Civ/A, Italy
Distance from station: СИ 13km
Актуализирано: 27/01/2021 18:50
Тихо и ясно
Тихо и ясно
 Вятър от ЗСЗ
Вятър: ЗСЗ 9 km/h
Температура: 6°C
Wind Chill: 4°C
Точка на оросяване: -2°C
Влажност: 57%
Барометър: 1016 hPa
Метео сводка: Тихо и ясно
Visibility: greater than 10 km
2021/01/27 17:50 LIBG 271750Z 29005KT CAVOK 06/M02 Q1016
LIBH - Marina Di Ginosa, Italy
Distance from station: З 33km
Актуализирано: 26/01/2021 20:55
NOT Current
Тихо и ясно
Тихо и ясно
 Вятър от СЗ
Вятър: СЗ 28 km/h, Порив: 46 km/h
Температура: 7°C
Wind Chill: 3°C
Точка на оросяване: 3°C
Влажност: 76%
Барометър: 1011 hPa
Метео сводка: Тихо и ясно
Visibility: greater than 10 km
2021/01/26 19:55 LIBH 261955Z 31015G25KT CAVOK 07/03 Q1011 RMK SKC QUK / QUL / VIS MAR 30 KM VIS MIN 9999
 
LIBV - Gioia Del Colle, Italy
Distance from station: СЗ 45km
Актуализирано: 26/01/2021 20:55
NOT Current
Частична облачност
Частична облачност
 Вятър от ССЗ
Вятър: ССЗ 37 km/h
Температура: 3°C
Wind Chill: -3°C
Точка на оросяване: -3°C
Влажност: 65%
Барометър: 1011 hPa
Clouds: Частична облачност
Visibility: 10 km
Cloud details: Частична облачност 1219 m
2021/01/26 19:55 LIBV 261955Z 33020KT 9999 SCT040 03/M03 Q1011 RMK SCT VIS MIN 9999 WIND THR32 32021KT WIND THR14 31018KT BLU
LIBR - Brindisi/Casale, Italy
Distance from station: ИСИ 62km
Актуализирано: 27/01/2021 19:20
Частична облачност
Частична облачност
 Вятър от З
Вятър: З 13 km/h
Температура: 5°C
Wind Chill: 2°C
Точка на оросяване: 0°C
Влажност: 70%
Барометър: 1015 hPa
Clouds: Частична облачност
Visibility: 10 km
Cloud details: Частична облачност 610 m
2021/01/27 18:20 LIBR 271820Z 28007KT 250V310 9999 SCT020 05/00 Q1015
 
LIBN - Lecce (it-Afb), Italy
Distance from station: ИЮИ 79km
Актуализирано: 26/01/2021 20:55
NOT Current
Частична облачност
Частична облачност
 Вятър от ЗСЗ
Вятър: ЗСЗ 43 km/h, Порив: 69 km/h
Температура: 6°C
Wind Chill: 1°C
Точка на оросяване: 4°C
Влажност: 87%
Барометър: 1010 hPa
Clouds: Частична облачност
Visibility: 10 km
Cloud details: Частична облачност 762 m
Частична облачност 914 m
2021/01/26 19:55 LIBN 261955Z 30023G37KT 9999 SCT025 SCT030 06/04 Q1010 RMK BKN VIS MIN 9999 WIND THR14 31020G34KT WIND THR32 31022G33KT BLU
LIBD - Bari/Palese Macc, Italy
Distance from station: ССЗ 85km
Актуализирано: 27/01/2021 19:20
Тихо и ясно
Тихо и ясно
 Вятър от ЗЮЗ
Вятър: ЗЮЗ 13 km/h
Температура: 5°C
Wind Chill: 2°C
Точка на оросяване: 0°C
Влажност: 70%
Барометър: 1016 hPa
Метео сводка: Тихо и ясно
Visibility: greater than 10 km
2021/01/27 18:20 LIBD 271820Z 25007KT CAVOK 05/00 Q1016